createdAt,value
2017-11-18T00:01:55.797Z,99.90
2017-11-18T00:04:23.325Z,99.90
2017-11-18T00:06:50.850Z,99.90
2017-11-18T00:09:18.393Z,99.90
2017-11-18T00:11:46.679Z,99.90
2017-11-18T00:14:14.204Z,99.90
2017-11-18T00:16:41.745Z,99.90
2017-11-18T00:19:09.263Z,99.90
2017-11-18T00:21:36.790Z,99.90
2017-11-18T00:24:04.346Z,99.90
2017-11-18T00:26:31.874Z,99.90
2017-11-18T00:28:59.390Z,99.90
2017-11-18T00:31:26.934Z,99.90
2017-11-18T00:33:55.238Z,99.90
2017-11-18T00:36:22.786Z,99.90
2017-11-18T00:38:50.293Z,99.90
2017-11-18T00:41:17.825Z,99.90
2017-11-18T00:43:45.378Z,99.90
2017-11-18T00:46:12.902Z,99.90
2017-11-18T00:48:41.189Z,99.90
2017-11-18T00:51:09.507Z,99.90
2017-11-18T00:53:37.595Z,99.90
2017-11-18T00:56:05.130Z,99.90
2017-11-18T00:58:32.705Z,99.90
2017-11-18T01:01:00.217Z,99.90
2017-11-18T01:03:27.774Z,99.90
2017-11-18T01:05:55.295Z,99.90
2017-11-18T01:08:22.815Z,99.90
2017-11-18T01:10:50.360Z,99.90
2017-11-18T01:13:18.652Z,99.90
2017-11-18T01:15:46.937Z,99.90
2017-11-18T01:18:14.482Z,99.90
2017-11-18T01:20:41.996Z,99.90
2017-11-18T01:23:09.535Z,99.90
2017-11-18T01:25:37.081Z,99.90
2017-11-18T01:28:04.606Z,99.90
2017-11-18T01:30:32.890Z,99.90
2017-11-18T01:33:01.207Z,99.90
2017-11-18T01:35:28.724Z,99.90
2017-11-18T01:37:56.241Z,99.90
2017-11-18T01:40:23.795Z,99.90
2017-11-18T01:42:51.328Z,99.90
2017-11-18T01:45:18.858Z,99.90
2017-11-18T01:47:46.391Z,99.90
2017-11-18T01:50:13.913Z,99.90
2017-11-18T01:52:41.468Z,99.90
2017-11-18T01:55:08.987Z,99.90
2017-11-18T01:57:36.558Z,99.90
2017-11-18T02:00:04.111Z,99.90
2017-11-18T02:02:43.077Z,99.90
2017-11-18T02:05:10.646Z,99.90
2017-11-18T02:07:38.165Z,99.90
2017-11-18T02:10:05.702Z,99.90
2017-11-18T02:12:33.263Z,99.90
2017-11-18T02:15:00.784Z,99.90
2017-11-18T02:17:28.307Z,99.90
2017-11-18T02:19:55.861Z,99.90
2017-11-18T02:22:23.411Z,99.90
2017-11-18T02:24:50.928Z,99.90
2017-11-18T02:27:18.468Z,99.90
2017-11-18T02:29:45.983Z,99.90
2017-11-18T02:32:13.516Z,99.90
2017-11-18T02:34:41.059Z,99.90
2017-11-18T02:37:08.574Z,99.90
2017-11-18T02:39:36.126Z,99.90
2017-11-18T02:42:03.654Z,99.90
2017-11-18T02:44:31.160Z,99.90
2017-11-18T02:46:58.711Z,99.90
2017-11-18T02:49:26.242Z,99.90
2017-11-18T02:51:53.758Z,99.90
2017-11-18T02:54:22.071Z,99.90
2017-11-18T02:56:49.609Z,99.90
2017-11-18T02:59:17.140Z,99.90
2017-11-18T03:01:44.687Z,99.90
2017-11-18T03:04:12.208Z,99.90
2017-11-18T03:06:39.732Z,99.90
2017-11-18T03:09:08.046Z,99.90
2017-11-18T03:11:35.567Z,99.90
2017-11-18T03:14:03.083Z,99.90
2017-11-18T03:16:30.624Z,99.90
2017-11-18T03:18:58.133Z,99.90
2017-11-18T03:21:25.651Z,99.90
2017-11-18T03:23:53.199Z,99.90
2017-11-18T03:26:20.721Z,99.90
2017-11-18T03:28:48.238Z,99.90
2017-11-18T03:31:15.780Z,99.90
2017-11-18T03:33:43.294Z,99.90
2017-11-18T03:36:11.578Z,99.90
2017-11-18T03:38:39.125Z,99.90
2017-11-18T03:41:06.644Z,99.90
2017-11-18T03:43:34.169Z,99.90
2017-11-18T03:46:01.730Z,99.90
2017-11-18T03:48:29.246Z,99.90
2017-11-18T03:50:56.791Z,99.90
2017-11-18T03:53:24.306Z,99.90
2017-11-18T03:55:52.596Z,99.90
2017-11-18T03:58:20.153Z,99.90
2017-11-18T04:00:53.309Z,99.90
2017-11-18T04:03:20.850Z,99.90
2017-11-18T04:05:48.366Z,99.90
2017-11-18T04:08:15.880Z,99.90
2017-11-18T04:10:43.424Z,99.90
2017-11-18T04:13:10.950Z,99.90
2017-11-18T04:15:38.482Z,99.90
2017-11-18T04:18:06.026Z,99.90
2017-11-18T04:20:33.578Z,99.90
2017-11-18T04:23:01.106Z,99.90
2017-11-18T04:25:28.635Z,99.90
2017-11-18T04:27:56.186Z,99.90
2017-11-18T04:30:24.492Z,99.90
2017-11-18T04:32:52.031Z,99.90
2017-11-18T04:35:19.593Z,99.90
2017-11-18T04:37:47.126Z,99.90
2017-11-18T04:40:14.646Z,99.90
2017-11-18T04:42:42.185Z,99.90
2017-11-18T04:45:09.710Z,99.90
2017-11-18T04:47:37.235Z,99.90
2017-11-18T04:50:04.793Z,99.90
2017-11-18T04:52:32.353Z,99.90
2017-11-18T04:54:59.900Z,99.90
2017-11-18T04:57:27.402Z,99.90
2017-11-18T04:59:54.922Z,99.90
2017-11-18T05:02:22.470Z,99.90
2017-11-18T05:04:50.003Z,99.90
2017-11-18T05:07:17.540Z,99.90
2017-11-18T05:09:45.064Z,99.90
2017-11-18T05:12:12.613Z,99.90
2017-11-18T05:14:40.151Z,99.90
2017-11-18T05:17:07.695Z,99.90
2017-11-18T05:19:35.249Z,99.90
2017-11-18T05:22:02.741Z,99.90
2017-11-18T05:24:30.305Z,99.90
2017-11-18T05:26:57.815Z,99.90
2017-11-18T05:29:25.332Z,99.90
2017-11-18T05:31:52.892Z,99.90
2017-11-18T05:34:20.407Z,99.90
2017-11-18T05:36:48.693Z,99.90
2017-11-18T05:39:17.006Z,99.90
2017-11-18T05:41:44.528Z,99.90
2017-11-18T05:44:12.038Z,99.90
2017-11-18T05:46:39.588Z,99.90
2017-11-18T05:49:07.108Z,99.90
2017-11-18T05:51:34.624Z,99.90
2017-11-18T05:54:02.182Z,99.90
2017-11-18T05:56:29.705Z,99.90
2017-11-18T05:58:57.255Z,99.90
2017-11-18T06:01:24.792Z,99.90
2017-11-18T06:03:52.320Z,99.90
2017-11-18T06:06:19.866Z,99.90
2017-11-18T06:08:47.414Z,99.90
2017-11-18T06:11:14.939Z,99.90
2017-11-18T06:13:42.455Z,99.90
2017-11-18T06:16:09.998Z,99.90
2017-11-18T06:18:37.527Z,99.90
2017-11-18T06:21:05.843Z,99.90
2017-11-18T06:23:33.387Z,99.90
2017-11-18T06:26:00.948Z,99.90
2017-11-18T06:28:28.467Z,99.90
2017-11-18T06:30:55.998Z,99.90
2017-11-18T06:33:23.542Z,99.90
2017-11-18T06:35:51.055Z,99.90
2017-11-18T06:38:18.582Z,99.90
2017-11-18T06:40:46.894Z,99.90
2017-11-18T06:43:15.188Z,99.90
2017-11-18T06:45:42.739Z,99.90
2017-11-18T06:48:10.266Z,99.90
2017-11-18T06:50:37.781Z,99.90
2017-11-18T06:53:05.339Z,99.90
2017-11-18T06:55:32.876Z,99.90
2017-11-18T06:58:01.165Z,99.90
2017-11-18T07:00:29.478Z,99.90
2017-11-18T07:02:57.117Z,99.90
2017-11-18T07:05:24.643Z,99.90
2017-11-18T07:07:52.189Z,99.90
2017-11-18T07:10:19.703Z,99.90
2017-11-18T07:12:47.244Z,99.90
2017-11-18T07:15:14.764Z,99.90
2017-11-18T07:17:42.279Z,99.90
2017-11-18T07:20:09.823Z,99.90
2017-11-18T07:22:37.330Z,99.90
2017-11-18T07:25:04.838Z,99.90
2017-11-18T07:27:33.158Z,99.90
2017-11-18T07:30:00.671Z,99.90
2017-11-18T07:32:28.962Z,99.90
2017-11-18T07:34:56.507Z,99.90
2017-11-18T07:37:24.050Z,99.90
2017-11-18T07:39:51.564Z,99.90
2017-11-18T07:42:19.104Z,99.90
2017-11-18T07:44:46.622Z,99.90
2017-11-18T07:47:14.138Z,99.90
2017-11-18T07:49:41.781Z,99.90
2017-11-18T07:52:09.340Z,99.90
2017-11-18T07:54:36.872Z,99.90
2017-11-18T07:57:04.446Z,99.90
2017-11-18T07:59:32.738Z,99.90
2017-11-18T08:02:00.257Z,99.90
2017-11-18T08:04:27.811Z,99.90
2017-11-18T08:06:55.329Z,99.90
2017-11-18T08:09:22.858Z,99.90
2017-11-18T08:11:50.401Z,99.90
2017-11-18T08:14:17.918Z,99.90
2017-11-18T08:16:45.443Z,99.90
2017-11-18T08:19:12.987Z,99.90
2017-11-18T08:21:40.508Z,99.90
2017-11-18T08:24:08.083Z,99.90
2017-11-18T08:26:35.633Z,99.90
2017-11-18T08:29:03.164Z,99.90
2017-11-18T08:31:30.706Z,99.90
2017-11-18T08:33:59.038Z,99.90
2017-11-18T08:36:41.191Z,99.90
2017-11-18T08:39:09.540Z,99.90
2017-11-18T08:41:37.063Z,99.90
2017-11-18T08:44:04.594Z,99.90
2017-11-18T08:46:32.893Z,99.90
2017-11-18T08:49:00.419Z,99.90
2017-11-18T08:51:27.961Z,99.90
2017-11-18T08:53:55.489Z,99.90
2017-11-18T08:56:23.014Z,99.90
2017-11-18T08:58:50.578Z,99.90
2017-11-18T09:01:18.111Z,99.90
2017-11-18T09:03:45.666Z,99.90
2017-11-18T09:06:13.179Z,99.90
2017-11-18T09:08:40.702Z,99.90
2017-11-18T09:11:08.270Z,99.90
2017-11-18T09:13:35.807Z,99.90
2017-11-18T09:16:04.102Z,99.90
2017-11-18T09:18:31.642Z,99.90
2017-11-18T09:20:59.165Z,99.90
2017-11-18T09:23:26.699Z,99.90
2017-11-18T09:25:54.257Z,99.90
2017-11-18T09:28:21.761Z,99.90
2017-11-18T09:30:49.291Z,99.90
2017-11-18T09:33:16.826Z,99.90
2017-11-18T09:35:44.339Z,99.90
2017-11-18T09:38:11.867Z,99.90
2017-11-18T09:40:39.401Z,99.90
2017-11-18T09:43:07.708Z,99.90
2017-11-18T09:45:35.216Z,99.90
2017-11-18T09:48:02.766Z,99.90
2017-11-18T09:50:30.280Z,99.90
2017-11-18T09:52:57.803Z,99.90
2017-11-18T09:55:25.352Z,99.90
2017-11-18T09:57:52.872Z,99.90
2017-11-18T10:00:20.396Z,99.90
2017-11-18T10:02:47.953Z,99.90
2017-11-18T10:05:15.485Z,99.90
2017-11-18T10:07:42.999Z,99.90
2017-11-18T10:10:10.546Z,99.90
2017-11-18T10:12:38.096Z,99.90
2017-11-18T10:15:05.619Z,99.90
2017-11-18T10:17:33.155Z,99.90
2017-11-18T10:20:00.698Z,99.90
2017-11-18T10:22:28.217Z,99.90
2017-11-18T10:24:55.739Z,99.90
2017-11-18T10:27:23.272Z,99.90
2017-11-18T10:29:50.791Z,99.90
2017-11-18T10:32:18.343Z,99.90
2017-11-18T10:34:45.867Z,99.90
2017-11-18T10:37:13.380Z,99.90
2017-11-18T10:39:41.688Z,99.90
2017-11-18T10:42:09.204Z,99.90
2017-11-18T10:44:36.729Z,99.90
2017-11-18T10:47:05.178Z,99.90
2017-11-18T10:49:32.727Z,99.90
2017-11-18T10:52:00.245Z,99.90
2017-11-18T10:54:27.779Z,99.90
2017-11-18T10:56:55.364Z,99.90
2017-11-18T10:59:22.884Z,99.90
2017-11-18T11:01:52.574Z,99.90
2017-11-18T11:04:24.914Z,99.90
2017-11-18T11:06:53.322Z,99.90
2017-11-18T11:09:22.139Z,99.90
2017-11-18T11:11:49.666Z,99.90
2017-11-18T11:14:17.987Z,99.90
2017-11-18T11:16:45.741Z,99.90
2017-11-18T11:19:13.382Z,99.90
2017-11-18T11:21:41.691Z,99.90
2017-11-18T11:24:09.327Z,99.90
2017-11-18T11:26:36.892Z,99.90
2017-11-18T11:29:04.498Z,99.90
2017-11-18T11:31:32.086Z,99.90
2017-11-18T11:34:04.235Z,99.90
2017-11-18T11:36:31.815Z,99.90
2017-11-18T11:39:01.559Z,99.90
2017-11-18T11:41:29.677Z,99.90
2017-11-18T11:43:58.320Z,99.90
2017-11-18T11:46:27.672Z,99.90
2017-11-18T11:48:56.982Z,99.90
2017-11-18T11:51:25.692Z,99.90
2017-11-18T11:53:56.170Z,99.90
2017-11-18T11:56:26.634Z,99.90
2017-11-18T11:58:54.236Z,99.90
2017-11-18T12:01:22.240Z,99.90
2017-11-18T12:03:49.859Z,99.90
2017-11-18T12:06:17.503Z,99.90
2017-11-18T12:08:45.790Z,99.90
2017-11-18T12:11:14.099Z,99.90
2017-11-18T12:13:41.620Z,99.90
2017-11-18T12:16:09.202Z,99.90
2017-11-18T12:18:36.722Z,99.90
2017-11-18T12:21:04.269Z,99.90
2017-11-18T12:23:31.837Z,99.90
2017-11-18T12:25:59.375Z,99.90
2017-11-18T12:28:26.897Z,99.90
2017-11-18T12:30:54.434Z,99.90
2017-11-18T12:33:21.950Z,99.90
2017-11-18T12:35:49.483Z,99.90
2017-11-18T12:38:17.029Z,99.90
2017-11-18T12:40:44.555Z,99.90
2017-11-18T12:43:12.066Z,99.90
2017-11-18T12:45:39.620Z,99.90
2017-11-18T12:48:07.141Z,99.90
2017-11-18T12:50:34.683Z,99.90
2017-11-18T12:53:02.225Z,99.90
2017-11-18T12:55:29.743Z,99.90
2017-11-18T12:57:58.251Z,99.90
2017-11-18T13:00:26.801Z,99.90
2017-11-18T13:02:54.427Z,99.90
2017-11-18T13:05:23.784Z,99.90
2017-11-18T13:07:51.472Z,99.90
2017-11-18T13:10:19.281Z,99.90
2017-11-18T13:12:47.930Z,99.90
2017-11-18T13:15:15.726Z,99.90
2017-11-18T13:17:43.338Z,99.90
2017-11-18T13:20:11.099Z,99.90
2017-11-18T13:22:40.154Z,99.90
2017-11-18T13:25:07.710Z,99.90
2017-11-18T13:27:35.275Z,99.90
2017-11-18T13:30:03.581Z,99.90
2017-11-18T13:32:31.099Z,99.90
2017-11-18T13:34:58.661Z,99.90
2017-11-18T13:37:26.194Z,99.90
2017-11-18T13:39:53.714Z,99.90
2017-11-18T13:42:22.020Z,99.90
2017-11-18T13:44:49.526Z,99.90
2017-11-18T13:47:17.046Z,99.90
2017-11-18T13:49:44.609Z,99.90
2017-11-18T13:52:12.143Z,99.90
2017-11-18T13:54:39.672Z,99.90
2017-11-18T13:57:08.019Z,99.90
2017-11-18T13:59:36.305Z,99.60
2017-11-18T14:02:03.825Z,99.60
2017-11-18T14:04:31.362Z,99.50
2017-11-18T14:06:59.660Z,99.20
2017-11-18T14:09:27.218Z,99.20
2017-11-18T14:11:54.742Z,99.30
2017-11-18T14:14:23.501Z,99.50
2017-11-18T14:16:54.030Z,99.30
2017-11-18T14:19:21.611Z,99.40
2017-11-18T14:21:49.147Z,99.50
2017-11-18T14:24:16.697Z,99.60
2017-11-18T14:26:44.987Z,99.90
2017-11-18T14:29:13.591Z,99.90
2017-11-18T14:31:41.238Z,99.90
2017-11-18T14:34:08.764Z,99.90
2017-11-18T14:36:36.297Z,99.90
2017-11-18T14:39:03.853Z,99.90
2017-11-18T14:41:32.172Z,99.90
2017-11-18T14:43:59.737Z,99.90
2017-11-18T14:46:27.265Z,99.90
2017-11-18T14:48:54.796Z,99.90
2017-11-18T14:51:22.358Z,99.90
2017-11-18T14:53:49.914Z,99.90
2017-11-18T14:56:17.438Z,99.90
2017-11-18T14:58:44.959Z,99.90
2017-11-18T15:01:13.279Z,99.90
2017-11-18T15:03:40.836Z,99.90
2017-11-18T15:06:08.353Z,99.90
2017-11-18T15:08:35.892Z,99.90
2017-11-18T15:11:03.455Z,99.90
2017-11-18T15:13:30.996Z,99.90
2017-11-18T15:16:00.791Z,99.90
2017-11-18T15:18:33.906Z,99.90
2017-11-18T15:21:06.995Z,99.90
2017-11-18T15:23:40.107Z,99.90
2017-11-18T15:26:13.241Z,99.90
2017-11-18T15:31:51.373Z,99.90
2017-11-18T15:47:54.889Z,99.90
2017-11-18T15:50:29.170Z,99.90
2017-11-18T15:53:03.252Z,99.90
2017-11-18T15:55:39.343Z,99.90
2017-11-18T15:58:06.872Z,99.90
2017-11-18T16:13:53.915Z,99.90
2017-11-18T16:16:21.440Z,99.90
2017-11-18T16:18:48.952Z,99.90
2017-11-18T16:21:16.513Z,99.90
2017-11-18T16:23:44.028Z,99.90
2017-11-18T16:26:12.304Z,99.90
2017-11-18T16:28:39.859Z,99.90
2017-11-18T16:31:07.366Z,99.90
2017-11-18T16:33:34.882Z,99.90
2017-11-18T16:36:03.195Z,99.90
2017-11-18T16:38:30.713Z,99.90
2017-11-18T16:40:58.991Z,99.90
2017-11-18T16:43:26.557Z,99.90
2017-11-18T16:45:54.074Z,99.90
2017-11-18T16:48:21.622Z,99.80
2017-11-18T16:50:49.123Z,99.60
2017-11-18T16:53:16.651Z,99.50
2017-11-18T16:55:44.221Z,99.70
2017-11-18T16:58:11.752Z,99.40
2017-11-18T17:00:39.263Z,99.50
2017-11-18T17:03:06.806Z,99.50
2017-11-18T17:05:34.326Z,99.70
2017-11-18T17:08:01.852Z,99.80
2017-11-18T17:10:30.174Z,99.40
2017-11-18T17:12:57.692Z,99.40
2017-11-18T17:15:25.219Z,98.90
2017-11-18T17:17:52.806Z,99.20
2017-11-18T17:20:20.301Z,99.20
2017-11-18T17:22:47.834Z,99.50
2017-11-18T17:25:16.149Z,99.80
2017-11-18T17:27:43.666Z,99.80
2017-11-18T17:30:11.202Z,99.70
2017-11-18T17:32:38.749Z,99.60
2017-11-18T17:35:06.266Z,99.60
2017-11-18T17:37:33.803Z,99.70
2017-11-18T17:40:02.128Z,98.80
2017-11-18T17:42:29.655Z,98.80
2017-11-18T17:44:57.170Z,99.00
2017-11-18T17:47:25.474Z,99.10
2017-11-18T17:49:53.004Z,99.10
2017-11-18T17:52:20.562Z,99.20
2017-11-18T17:54:48.078Z,99.20
2017-11-18T17:57:15.583Z,99.30
2017-11-18T17:59:43.912Z,99.50
2017-11-18T18:02:11.444Z,99.40
2017-11-18T18:04:38.961Z,99.50
2017-11-18T18:07:06.516Z,99.50
2017-11-18T18:09:34.031Z,99.70
2017-11-18T18:12:02.343Z,99.90
2017-11-18T18:14:29.864Z,99.90
2017-11-18T18:16:57.385Z,99.90
2017-11-18T18:19:24.926Z,99.90
2017-11-18T18:21:52.443Z,99.90
2017-11-18T18:24:19.960Z,99.90
2017-11-18T18:26:47.502Z,99.90
2017-11-18T18:29:15.021Z,99.90
2017-11-18T18:31:43.305Z,99.90
2017-11-18T18:34:11.614Z,99.90
2017-11-18T18:36:39.138Z,99.90
2017-11-18T18:39:06.667Z,99.90
2017-11-18T18:41:34.251Z,99.90
2017-11-18T18:44:01.776Z,99.90
2017-11-18T18:46:29.319Z,99.90
2017-11-18T18:48:56.834Z,99.90
2017-11-18T18:51:24.354Z,99.90
2017-11-18T18:53:51.919Z,99.90
2017-11-18T18:56:19.439Z,99.90
2017-11-18T18:58:46.946Z,99.90
2017-11-18T19:01:14.501Z,99.90
2017-11-18T19:03:42.024Z,99.90
2017-11-18T19:06:09.597Z,99.90
2017-11-18T19:08:37.144Z,99.90
2017-11-18T19:11:04.669Z,99.90
2017-11-18T19:13:32.192Z,99.90
2017-11-18T19:15:59.734Z,99.90
2017-11-18T19:18:27.278Z,99.90
2017-11-18T19:20:54.810Z,99.90
2017-11-18T19:23:22.334Z,99.90
2017-11-18T19:25:49.886Z,99.90
2017-11-18T19:28:17.401Z,99.90
2017-11-18T19:30:44.922Z,99.90
2017-11-18T19:33:12.479Z,99.90
2017-11-18T19:35:40.008Z,99.90
2017-11-18T19:38:07.523Z,99.90
2017-11-18T19:40:35.093Z,99.90
2017-11-18T19:43:03.386Z,99.90
2017-11-18T19:45:31.672Z,99.90
2017-11-18T19:47:59.935Z,99.90
2017-11-18T19:50:28.216Z,99.90
2017-11-18T19:52:56.501Z,99.90
2017-11-18T19:55:24.075Z,99.90
2017-11-18T19:57:51.603Z,99.90
2017-11-18T20:00:19.191Z,99.90
2017-11-18T20:02:46.753Z,99.90
2017-11-18T20:05:14.292Z,99.90
2017-11-18T20:07:42.580Z,99.90
2017-11-18T20:10:10.860Z,99.90
2017-11-18T20:12:38.403Z,99.90
2017-11-18T20:15:06.889Z,99.90
2017-11-18T20:17:35.192Z,99.90
2017-11-18T20:20:02.740Z,99.90
2017-11-18T20:22:30.324Z,99.90
2017-11-18T20:24:57.859Z,99.90
2017-11-18T20:27:25.397Z,99.90
2017-11-18T20:29:52.947Z,99.90
2017-11-18T20:32:20.501Z,99.90
2017-11-18T20:34:48.018Z,99.90
2017-11-18T20:37:15.573Z,99.90
2017-11-18T20:39:43.095Z,99.90
2017-11-18T20:42:10.652Z,99.90
2017-11-18T20:44:38.243Z,99.90
2017-11-18T20:47:05.776Z,99.90
2017-11-18T20:49:33.328Z,99.90
2017-11-18T20:52:00.930Z,99.90
2017-11-18T20:54:28.454Z,99.90
2017-11-18T20:56:55.975Z,99.90
2017-11-18T20:59:23.524Z,99.90
2017-11-18T21:01:51.039Z,99.90
2017-11-18T21:04:19.321Z,99.90
2017-11-18T21:06:47.635Z,99.90
2017-11-18T21:09:15.144Z,99.90
2017-11-18T21:11:42.669Z,99.90
2017-11-18T21:14:10.215Z,99.90
2017-11-18T21:16:37.730Z,99.90
2017-11-18T21:19:06.239Z,99.90
2017-11-18T21:21:33.800Z,99.90
2017-11-18T21:24:01.332Z,99.90
2017-11-18T21:26:29.659Z,99.90
2017-11-18T21:28:57.166Z,99.90
2017-11-18T21:31:24.679Z,99.90
2017-11-18T21:33:52.214Z,99.90
2017-11-18T21:36:19.736Z,99.90
2017-11-18T21:38:49.126Z,99.90
2017-11-18T21:41:18.698Z,99.90
2017-11-18T21:43:52.464Z,99.90
2017-11-18T21:46:20.878Z,99.90
2017-11-18T21:48:48.394Z,99.90
2017-11-18T21:51:15.910Z,99.90
2017-11-18T21:53:43.446Z,99.90
2017-11-18T21:56:11.726Z,99.90
2017-11-18T21:58:39.235Z,99.90
2017-11-18T22:01:10.464Z,99.90
2017-11-18T22:03:39.246Z,99.90
2017-11-18T22:06:06.766Z,99.90
2017-11-18T22:08:34.326Z,99.90
2017-11-18T22:11:02.631Z,99.90
2017-11-18T22:13:30.179Z,99.90
2017-11-18T22:15:57.838Z,99.90
2017-11-18T22:18:25.371Z,99.90
2017-11-18T22:20:52.928Z,99.90
2017-11-18T22:23:20.458Z,99.90
2017-11-18T22:25:48.016Z,99.90
2017-11-18T22:28:15.566Z,99.90
2017-11-18T22:30:43.100Z,99.90
2017-11-18T22:33:10.622Z,99.90
2017-11-18T22:35:38.189Z,99.90
2017-11-18T22:38:05.706Z,99.90
2017-11-18T22:40:33.214Z,99.90
2017-11-18T22:43:00.775Z,99.90
2017-11-18T22:45:28.307Z,99.90
2017-11-18T22:47:55.835Z,99.90
2017-11-18T22:50:23.393Z,99.90
2017-11-18T22:52:50.907Z,99.90
2017-11-18T22:55:18.458Z,99.90
2017-11-18T22:57:45.996Z,99.90
2017-11-18T23:00:13.521Z,99.90
2017-11-18T23:02:41.053Z,99.90
2017-11-18T23:05:08.583Z,99.90
2017-11-18T23:07:36.108Z,99.90
2017-11-18T23:10:03.682Z,99.90
2017-11-18T23:12:31.177Z,99.90
2017-11-18T23:14:58.706Z,99.90
2017-11-18T23:17:26.256Z,99.90
2017-11-18T23:19:53.770Z,99.90
2017-11-18T23:22:21.303Z,99.90
2017-11-18T23:24:49.623Z,99.90
2017-11-18T23:27:17.907Z,99.90
2017-11-18T23:29:45.416Z,99.90
2017-11-18T23:32:12.949Z,99.90
2017-11-18T23:34:40.478Z,99.90
2017-11-18T23:37:08.801Z,99.90
2017-11-18T23:39:36.381Z,99.90
2017-11-18T23:42:04.136Z,99.90
2017-11-18T23:44:31.941Z,99.90
2017-11-18T23:46:59.490Z,99.90
2017-11-18T23:49:27.005Z,99.90
2017-11-18T23:51:54.554Z,99.90
2017-11-18T23:54:22.079Z,99.90
2017-11-18T23:56:49.594Z,99.90
2017-11-18T23:59:17.130Z,99.90
